createdAt,value
2023-05-22T00:01:46.854Z,50.17
2023-05-22T00:04:21.088Z,49.89
2023-05-22T00:06:49.417Z,49.95
2023-05-22T00:09:16.742Z,49.84
2023-05-22T00:11:44.333Z,49.89
2023-05-22T00:14:13.442Z,49.95
2023-05-22T00:16:41.666Z,49.98
2023-05-22T00:19:13.456Z,49.58
2023-05-22T00:21:41.316Z,49.64
2023-05-22T00:24:09.594Z,49.76
2023-05-22T00:26:37.181Z,49.63
2023-05-22T00:29:05.919Z,49.58
2023-05-22T00:31:33.804Z,49.41
2023-05-22T00:34:01.291Z,49.46
2023-05-22T00:36:29.473Z,49.19
2023-05-22T00:38:56.836Z,49.34
2023-05-22T00:41:24.645Z,49.38
2023-05-22T00:43:51.975Z,49.35
2023-05-22T00:46:21.577Z,49.46
2023-05-22T00:48:49.253Z,49.25
2023-05-22T00:51:16.959Z,48.91
2023-05-22T00:53:46.029Z,49.16
2023-05-22T00:56:15.788Z,48.96
2023-05-22T00:58:43.082Z,49.26
2023-05-22T01:01:11.337Z,49.27
2023-05-22T01:03:44.640Z,49.22
2023-05-22T01:06:14.602Z,48.90
2023-05-22T01:08:42.396Z,48.73
2023-05-22T01:11:12.843Z,48.69
2023-05-22T01:13:46.241Z,48.93
2023-05-22T01:16:46.816Z,48.73
2023-05-22T01:19:51.326Z,48.77
2023-05-22T01:22:30.918Z,49.07
2023-05-22T01:25:26.584Z,48.77
2023-05-22T01:28:22.110Z,48.95
2023-05-22T01:31:29.926Z,48.83
2023-05-22T01:34:00.926Z,48.38
2023-05-22T01:36:34.999Z,48.74
2023-05-22T01:39:06.057Z,48.86
2023-05-22T01:41:34.209Z,48.57
2023-05-22T01:44:02.271Z,48.57
2023-05-22T01:46:30.557Z,48.51
2023-05-22T01:48:58.917Z,48.55
2023-05-22T01:51:57.519Z,48.43
2023-05-22T01:54:36.077Z,48.49
2023-05-22T01:57:17.172Z,48.16
2023-05-22T01:59:49.750Z,48.45
2023-05-22T02:02:19.735Z,48.38
2023-05-22T02:04:53.237Z,48.24
2023-05-22T02:07:22.865Z,48.22
2023-05-22T02:09:51.906Z,48.12
2023-05-22T02:12:20.050Z,48.37
2023-05-22T02:14:48.005Z,48.15
2023-05-22T02:17:18.132Z,48.45
2023-05-22T02:19:45.866Z,48.22
2023-05-22T02:22:16.110Z,48.14
2023-05-22T02:24:47.859Z,48.12
2023-05-22T02:27:15.147Z,48.15
2023-05-22T02:29:42.728Z,48.02
2023-05-22T02:32:10.039Z,47.89
2023-05-22T02:34:37.986Z,48.03
2023-05-22T02:37:05.580Z,47.97
2023-05-22T02:39:33.120Z,47.90
2023-05-22T02:42:00.820Z,47.60
2023-05-22T02:44:28.380Z,47.61
2023-05-22T02:46:55.983Z,47.75
2023-05-22T02:49:23.660Z,47.77
2023-05-22T02:51:52.284Z,47.59
2023-05-22T02:54:19.857Z,47.56
2023-05-22T02:56:47.161Z,47.59
2023-05-22T02:59:14.698Z,47.46
2023-05-22T03:01:42.212Z,47.49
2023-05-22T03:04:10.075Z,47.39
2023-05-22T03:06:38.304Z,47.40
2023-05-22T03:09:05.943Z,47.17
2023-05-22T03:11:33.235Z,47.28
2023-05-22T03:14:00.900Z,47.09
2023-05-22T03:16:28.342Z,47.10
2023-05-22T03:19:12.434Z,46.95
2023-05-22T03:21:40.736Z,47.09
2023-05-22T03:24:08.508Z,47.06
2023-05-22T03:26:35.844Z,47.02
2023-05-22T03:29:03.436Z,46.94
2023-05-22T03:31:32.571Z,47.16
2023-05-22T03:34:00.852Z,46.96
2023-05-22T03:36:29.509Z,46.82
2023-05-22T03:38:58.707Z,47.10
2023-05-22T03:41:26.301Z,46.71
2023-05-22T03:43:53.924Z,46.96
2023-05-22T03:46:21.824Z,46.72
2023-05-22T03:48:49.447Z,46.88
2023-05-22T03:51:19.293Z,46.86
2023-05-22T03:53:47.807Z,47.18
2023-05-22T03:56:15.164Z,47.04
2023-05-22T03:58:42.767Z,46.69
2023-05-22T04:01:11.233Z,46.98
2023-05-22T04:03:38.829Z,46.85
2023-05-22T04:06:07.499Z,46.96
2023-05-22T04:08:35.142Z,46.82
2023-05-22T04:11:03.161Z,47.10
2023-05-22T04:13:31.540Z,46.87
2023-05-22T04:15:58.947Z,47.09
2023-05-22T04:18:26.495Z,46.81
2023-05-22T04:20:53.847Z,46.87
2023-05-22T04:23:21.489Z,46.68
2023-05-22T04:25:49.493Z,46.59
2023-05-22T04:28:17.619Z,46.74
2023-05-22T04:30:45.084Z,46.75
2023-05-22T04:33:13.890Z,46.74
2023-05-22T04:35:42.315Z,46.65
2023-05-22T04:38:10.533Z,46.44
2023-05-22T04:40:38.035Z,46.70
2023-05-22T04:43:06.163Z,46.78
2023-05-22T04:45:33.577Z,46.56
2023-05-22T04:48:02.490Z,46.55
2023-05-22T04:50:33.057Z,46.49
2023-05-22T04:53:04.209Z,46.46
2023-05-22T04:55:34.846Z,46.42
2023-05-22T04:58:02.893Z,46.46
2023-05-22T05:00:30.483Z,46.42
2023-05-22T05:03:00.452Z,46.41
2023-05-22T05:05:27.952Z,46.24
2023-05-22T05:07:55.708Z,46.17
2023-05-22T05:10:23.055Z,46.37
2023-05-22T05:12:50.850Z,46.19
2023-05-22T05:15:18.258Z,46.08
2023-05-22T05:17:46.325Z,45.75
2023-05-22T05:20:14.682Z,45.63
2023-05-22T05:22:44.024Z,45.43
2023-05-22T05:25:11.913Z,45.45
2023-05-22T05:27:40.097Z,45.63
2023-05-22T05:30:07.945Z,45.20
2023-05-22T05:32:35.927Z,45.30
2023-05-22T05:35:03.460Z,45.34
2023-05-22T05:37:31.026Z,45.49
2023-05-22T05:39:58.348Z,45.22
2023-05-22T05:42:26.023Z,45.33
2023-05-22T05:44:53.354Z,45.39
2023-05-22T05:47:24.049Z,45.13
2023-05-22T05:49:51.642Z,45.50
2023-05-22T05:52:19.265Z,45.20
2023-05-22T05:54:48.071Z,45.55
2023-05-22T05:57:15.735Z,45.60
2023-05-22T05:59:43.040Z,45.59
2023-05-22T06:02:10.612Z,45.65
2023-05-22T06:04:38.180Z,45.50
2023-05-22T06:07:06.310Z,45.50
2023-05-22T06:09:33.656Z,45.48
2023-05-22T06:12:01.483Z,45.50
2023-05-22T06:14:28.894Z,45.53
2023-05-22T06:16:56.671Z,45.67
2023-05-22T06:19:24.091Z,45.60
2023-05-22T06:21:52.222Z,45.59
2023-05-22T06:24:19.743Z,45.55
2023-05-22T06:26:47.289Z,45.59
2023-05-22T06:29:14.548Z,45.54
2023-05-22T06:31:42.199Z,45.68
2023-05-22T06:34:09.640Z,45.56
2023-05-22T06:36:37.492Z,45.50
2023-05-22T06:39:04.914Z,45.45
2023-05-22T06:41:33.577Z,45.36
2023-05-22T06:44:02.183Z,45.51
2023-05-22T06:46:29.919Z,45.26
2023-05-22T06:48:57.302Z,45.40
2023-05-22T06:51:25.614Z,45.20
2023-05-22T06:53:52.971Z,45.52
2023-05-22T06:56:20.621Z,45.24
2023-05-22T06:58:48.300Z,45.20
2023-05-22T07:01:16.332Z,44.95
2023-05-22T07:03:43.622Z,45.21
2023-05-22T07:06:12.278Z,44.98
2023-05-22T07:08:39.680Z,45.08
2023-05-22T07:11:08.652Z,45.10
2023-05-22T07:13:36.516Z,45.06
2023-05-22T07:16:04.209Z,45.11
2023-05-22T07:18:31.600Z,44.99
2023-05-22T07:20:59.240Z,45.24
2023-05-22T07:23:26.543Z,45.16
2023-05-22T07:25:54.209Z,45.10
2023-05-22T07:28:21.503Z,45.04
2023-05-22T07:30:49.085Z,45.17
2023-05-22T07:33:16.537Z,45.01
2023-05-22T07:35:45.604Z,45.00
2023-05-22T07:38:12.923Z,44.96
2023-05-22T07:40:40.780Z,44.85
2023-05-22T07:43:08.334Z,44.88
2023-05-22T07:45:36.060Z,44.85
2023-05-22T07:48:04.384Z,44.88
2023-05-22T07:50:33.373Z,44.62
2023-05-22T07:53:01.153Z,44.81
2023-05-22T07:55:28.716Z,44.62
2023-05-22T07:57:56.395Z,44.89
2023-05-22T08:00:25.288Z,44.70
2023-05-22T08:02:52.773Z,44.57
2023-05-22T08:05:20.795Z,44.65
2023-05-22T08:07:48.492Z,44.47
2023-05-22T08:10:17.499Z,44.25
2023-05-22T08:12:45.204Z,44.27
2023-05-22T08:15:13.238Z,44.42
2023-05-22T08:17:40.722Z,44.27
2023-05-22T08:20:09.396Z,44.14
2023-05-22T08:22:39.006Z,44.21
2023-05-22T08:25:07.085Z,44.15
2023-05-22T08:27:34.393Z,44.04
2023-05-22T08:30:04.349Z,44.17
2023-05-22T08:32:31.972Z,44.01
2023-05-22T08:34:59.619Z,44.02
2023-05-22T08:37:27.185Z,43.97
2023-05-22T08:39:54.722Z,43.96
2023-05-22T08:42:22.094Z,43.99
2023-05-22T08:44:50.157Z,43.84
2023-05-22T08:47:19.087Z,43.94
2023-05-22T08:49:51.963Z,43.99
2023-05-22T08:52:23.177Z,43.96
2023-05-22T08:54:54.344Z,43.92
2023-05-22T08:57:23.048Z,43.94
2023-05-22T08:59:50.904Z,43.91
2023-05-22T09:02:18.477Z,43.77
2023-05-22T09:04:46.700Z,43.96
2023-05-22T09:07:14.550Z,44.06
2023-05-22T09:09:42.300Z,43.94
2023-05-22T09:12:10.761Z,43.89
2023-05-22T09:14:42.696Z,43.95
2023-05-22T09:17:14.651Z,43.85
2023-05-22T09:19:46.348Z,44.02
2023-05-22T09:22:14.165Z,43.72
2023-05-22T09:24:43.412Z,43.85
2023-05-22T09:27:11.886Z,43.96
2023-05-22T09:29:56.752Z,43.67
2023-05-22T09:32:24.526Z,43.85
2023-05-22T09:34:52.130Z,43.88
2023-05-22T09:37:19.432Z,43.67
2023-05-22T09:39:48.200Z,44.12
2023-05-22T09:42:17.486Z,43.81
2023-05-22T09:44:49.345Z,43.98
2023-05-22T09:47:17.250Z,43.83
2023-05-22T09:49:45.877Z,43.98
2023-05-22T09:52:13.202Z,43.95
2023-05-22T09:55:05.372Z,43.92
2023-05-22T09:57:38.009Z,43.99
2023-05-22T10:00:11.156Z,44.02
2023-05-22T10:02:44.217Z,43.80
2023-05-22T10:05:15.719Z,43.90
2023-05-22T10:07:51.087Z,44.04
2023-05-22T10:10:22.793Z,43.97
2023-05-22T10:13:00.096Z,44.00
2023-05-22T10:15:28.219Z,43.80
2023-05-22T10:17:56.822Z,43.82
2023-05-22T10:20:26.867Z,43.89
2023-05-22T10:22:55.574Z,43.96
2023-05-22T10:25:23.613Z,43.87
2023-05-22T10:27:55.805Z,43.78
2023-05-22T10:31:04.772Z,43.72
2023-05-22T10:33:40.951Z,43.57
2023-05-22T10:36:39.365Z,43.68
2023-05-22T10:39:28.448Z,43.63
2023-05-22T10:41:56.210Z,43.68
2023-05-22T10:44:23.825Z,43.67
2023-05-22T10:46:51.596Z,43.73
2023-05-22T10:49:26.664Z,43.81
2023-05-22T10:51:57.527Z,43.62
2023-05-22T10:54:59.637Z,43.95
2023-05-22T10:57:32.276Z,43.88
2023-05-22T11:00:11.542Z,43.70
2023-05-22T11:02:42.069Z,43.79
2023-05-22T11:05:19.479Z,43.78
2023-05-22T11:07:47.697Z,43.70
2023-05-22T11:10:15.061Z,43.68
2023-05-22T11:12:44.093Z,43.77
2023-05-22T11:15:11.774Z,43.75
2023-05-22T11:17:39.301Z,43.62
2023-05-22T11:20:24.292Z,43.77
2023-05-22T11:23:05.583Z,43.86
2023-05-22T11:25:34.927Z,43.82
2023-05-22T11:28:03.886Z,43.73
2023-05-22T11:30:31.812Z,43.96
2023-05-22T11:33:00.561Z,43.72
2023-05-22T11:35:28.875Z,43.86
2023-05-22T11:37:56.878Z,43.78
2023-05-22T11:40:26.966Z,43.77
2023-05-22T11:42:54.652Z,43.66
2023-05-22T11:45:22.235Z,43.72
2023-05-22T11:47:50.165Z,43.91
2023-05-22T11:50:29.419Z,43.78
2023-05-22T11:53:05.814Z,43.85
2023-05-22T11:55:33.385Z,44.03
2023-05-22T11:58:02.426Z,43.91
2023-05-22T12:00:31.565Z,43.76
2023-05-22T12:02:59.742Z,44.05
2023-05-22T12:05:27.251Z,43.92
2023-05-22T12:07:55.029Z,43.85
2023-05-22T12:10:22.465Z,43.85
2023-05-22T12:12:50.229Z,43.82
2023-05-22T12:15:21.170Z,43.74
2023-05-22T12:17:48.928Z,43.95
2023-05-22T12:20:16.358Z,43.63
2023-05-22T12:22:44.208Z,43.82
2023-05-22T12:25:17.308Z,43.66
2023-05-22T12:27:45.862Z,43.93
2023-05-22T12:30:14.182Z,43.84
2023-05-22T12:32:47.396Z,44.04
2023-05-22T12:35:17.159Z,45.82
2023-05-22T12:37:49.189Z,46.29
2023-05-22T12:40:16.806Z,45.46
2023-05-22T12:42:45.037Z,47.05
2023-05-22T12:45:13.496Z,45.15
2023-05-22T12:47:40.931Z,46.85
2023-05-22T12:50:08.911Z,47.58
2023-05-22T12:52:36.315Z,47.41
2023-05-22T12:55:04.553Z,47.65
2023-05-22T12:57:31.818Z,47.70
2023-05-22T12:59:59.519Z,47.17
2023-05-22T13:02:27.010Z,47.27
2023-05-22T13:04:54.648Z,47.06
2023-05-22T13:07:21.981Z,47.07
2023-05-22T13:09:49.477Z,46.93
2023-05-22T13:12:16.922Z,47.06
2023-05-22T13:14:44.563Z,46.60
2023-05-22T13:17:11.966Z,46.75
2023-05-22T13:19:39.645Z,47.58
2023-05-22T13:22:07.690Z,47.18
2023-05-22T13:24:35.705Z,47.53
2023-05-22T13:27:03.031Z,47.25
2023-05-22T13:29:30.841Z,46.98
2023-05-22T13:31:58.103Z,47.11
2023-05-22T13:34:25.665Z,47.22
2023-05-22T13:36:53.038Z,47.85
2023-05-22T13:39:20.865Z,48.53
2023-05-22T13:41:48.181Z,48.63
2023-05-22T13:44:16.226Z,49.08
2023-05-22T13:46:43.600Z,48.62
2023-05-22T13:49:11.240Z,49.27
2023-05-22T13:51:39.191Z,48.67
2023-05-22T13:54:06.758Z,49.25
2023-05-22T13:56:34.105Z,48.93
2023-05-22T13:59:01.676Z,48.73
2023-05-22T14:01:29.413Z,48.91
2023-05-22T14:03:57.041Z,48.50
2023-05-22T14:06:24.634Z,49.40
2023-05-22T14:08:52.231Z,49.47
2023-05-22T14:11:19.495Z,49.29
2023-05-22T14:13:47.447Z,48.63
2023-05-22T14:16:14.805Z,48.27
2023-05-22T14:18:42.395Z,47.97
2023-05-22T14:21:09.703Z,48.17
2023-05-22T14:23:37.211Z,47.90
2023-05-22T14:26:04.682Z,47.97
2023-05-22T14:28:32.455Z,47.68
2023-05-22T14:30:59.828Z,47.96
2023-05-22T14:33:27.471Z,47.83
2023-05-22T14:35:54.725Z,47.63
2023-05-22T14:38:22.838Z,47.82
2023-05-22T14:40:51.265Z,47.28
2023-05-22T14:43:18.971Z,47.98
2023-05-22T14:45:46.297Z,47.98
2023-05-22T14:48:13.845Z,47.85
2023-05-22T14:50:41.123Z,47.83
2023-05-22T14:53:08.677Z,47.73
2023-05-22T14:55:36.040Z,47.69
2023-05-22T14:58:03.659Z,47.70
2023-05-22T15:00:31.052Z,48.05
2023-05-22T15:02:58.775Z,48.15
2023-05-22T15:05:26.955Z,48.27
2023-05-22T15:07:58.393Z,47.58
2023-05-22T15:10:26.701Z,47.60
2023-05-22T15:12:54.520Z,47.42
2023-05-22T15:15:21.954Z,47.95
2023-05-22T15:17:49.677Z,48.27
2023-05-22T15:20:17.146Z,48.30
2023-05-22T15:22:44.717Z,48.09
2023-05-22T15:25:15.071Z,48.13
2023-05-22T15:27:43.028Z,47.77
2023-05-22T15:30:11.925Z,48.14
2023-05-22T15:32:39.739Z,48.31
2023-05-22T15:35:07.615Z,48.35
2023-05-22T15:37:36.485Z,48.29
2023-05-22T15:40:04.496Z,47.87
2023-05-22T15:42:32.382Z,48.34
2023-05-22T15:45:00.674Z,48.38
2023-05-22T15:47:29.563Z,48.00
2023-05-22T15:49:56.978Z,48.35
2023-05-22T15:52:24.842Z,48.21
2023-05-22T15:54:52.895Z,48.24
2023-05-22T15:57:21.107Z,48.28
2023-05-22T15:59:50.592Z,47.99
2023-05-22T16:02:18.768Z,48.22
2023-05-22T16:04:46.799Z,48.15
2023-05-22T16:07:15.063Z,48.32
2023-05-22T16:09:43.341Z,48.33
2023-05-22T16:12:11.300Z,48.59
2023-05-22T16:14:40.201Z,48.63
2023-05-22T16:17:09.300Z,48.78
2023-05-22T16:19:36.778Z,48.96
2023-05-22T16:22:04.822Z,49.56
2023-05-22T16:24:32.156Z,49.68
2023-05-22T16:27:00.268Z,49.89
2023-05-22T16:29:27.628Z,49.93
2023-05-22T16:31:56.731Z,50.01
2023-05-22T16:34:24.690Z,50.41
2023-05-22T16:36:52.306Z,50.25
2023-05-22T16:39:19.632Z,50.39
2023-05-22T16:41:47.284Z,50.41
2023-05-22T16:44:14.609Z,50.44
2023-05-22T16:46:42.403Z,50.04
2023-05-22T16:49:09.748Z,50.18
2023-05-22T16:51:37.327Z,50.05
2023-05-22T16:54:04.837Z,49.71
2023-05-22T16:56:34.068Z,50.04
2023-05-22T16:59:02.051Z,50.20
2023-05-22T17:01:30.170Z,50.07
2023-05-22T17:03:57.513Z,50.09
2023-05-22T17:06:25.166Z,49.81
2023-05-22T17:08:52.440Z,49.70
2023-05-22T17:11:19.987Z,49.84
2023-05-22T17:13:47.267Z,50.18
2023-05-22T17:16:14.868Z,49.64
2023-05-22T17:18:42.152Z,49.28
2023-05-22T17:21:09.688Z,49.41
2023-05-22T17:23:37.407Z,49.87
2023-05-22T17:26:05.493Z,49.38
2023-05-22T17:28:33.389Z,48.98
2023-05-22T17:31:01.014Z,49.42
2023-05-22T17:33:28.502Z,49.06
2023-05-22T17:35:56.302Z,49.73
2023-05-22T17:38:23.749Z,48.29
2023-05-22T17:40:53.564Z,48.07
2023-05-22T17:43:21.412Z,48.51
2023-05-22T17:45:51.480Z,48.41
2023-05-22T17:48:27.433Z,48.72
2023-05-22T17:50:55.843Z,48.94
2023-05-22T17:53:23.185Z,47.98
2023-05-22T17:55:52.453Z,47.83
2023-05-22T17:58:20.557Z,47.57
2023-05-22T18:00:49.068Z,47.64
2023-05-22T18:03:20.273Z,47.62
2023-05-22T18:05:49.164Z,47.33
2023-05-22T18:08:17.410Z,47.81
2023-05-22T18:10:45.550Z,47.27
2023-05-22T18:13:13.243Z,47.18
2023-05-22T18:15:41.092Z,47.12
2023-05-22T18:18:10.685Z,47.17
2023-05-22T18:20:40.027Z,47.12
2023-05-22T18:23:07.679Z,46.83
2023-05-22T18:25:35.458Z,47.01
2023-05-22T18:28:02.841Z,47.12
2023-05-22T18:30:30.484Z,47.03
2023-05-22T18:32:58.132Z,46.87
2023-05-22T18:35:26.040Z,47.06
2023-05-22T18:37:53.296Z,47.20
2023-05-22T18:40:20.855Z,47.11
2023-05-22T18:42:48.157Z,47.24
2023-05-22T18:45:15.837Z,47.19
2023-05-22T18:47:43.436Z,47.23
2023-05-22T18:50:11.572Z,47.68
2023-05-22T18:52:39.971Z,47.80
2023-05-22T18:55:07.918Z,47.82
2023-05-22T18:57:35.288Z,47.80
2023-05-22T19:00:03.389Z,48.03
2023-05-22T19:02:31.361Z,47.72
2023-05-22T19:04:59.427Z,48.00
2023-05-22T19:07:27.252Z,48.36
2023-05-22T19:09:55.163Z,48.40
2023-05-22T19:12:24.629Z,48.11
2023-05-22T19:14:52.554Z,48.29
2023-05-22T19:17:20.653Z,48.20
2023-05-22T19:19:48.510Z,48.47
2023-05-22T19:22:18.189Z,48.43
2023-05-22T19:24:45.916Z,48.45
2023-05-22T19:27:13.230Z,48.59
2023-05-22T19:29:41.855Z,47.99
2023-05-22T19:32:10.285Z,48.19
2023-05-22T19:34:37.846Z,48.11
2023-05-22T19:37:05.267Z,48.23
2023-05-22T19:39:33.192Z,48.38
2023-05-22T19:42:00.804Z,48.42
2023-05-22T19:44:28.574Z,48.27
2023-05-22T19:46:57.123Z,48.26
2023-05-22T19:49:24.671Z,48.25
2023-05-22T19:51:53.549Z,48.59
2023-05-22T19:54:23.083Z,48.42
2023-05-22T19:56:50.461Z,48.10
2023-05-22T19:59:18.088Z,47.98
2023-05-22T20:01:45.431Z,48.50
2023-05-22T20:04:13.189Z,48.30
2023-05-22T20:06:42.112Z,48.41
2023-05-22T20:09:09.957Z,48.40
2023-05-22T20:11:37.414Z,48.08
2023-05-22T20:14:05.147Z,48.06
2023-05-22T20:16:32.520Z,48.20
2023-05-22T20:19:00.360Z,47.97
2023-05-22T20:21:27.706Z,48.29
2023-05-22T20:23:55.610Z,48.10
2023-05-22T20:26:23.088Z,48.19
2023-05-22T20:28:50.849Z,48.19
2023-05-22T20:31:18.234Z,48.51
2023-05-22T20:33:46.041Z,48.55
2023-05-22T20:36:16.466Z,48.50
2023-05-22T20:38:44.014Z,48.20
2023-05-22T20:41:12.821Z,48.48
2023-05-22T20:43:43.337Z,48.60
2023-05-22T20:46:10.926Z,48.82
2023-05-22T20:48:46.743Z,48.55
2023-05-22T20:51:18.556Z,48.06
2023-05-22T20:53:51.426Z,48.39
2023-05-22T20:56:18.862Z,48.07
2023-05-22T20:58:46.545Z,48.24
2023-05-22T21:01:13.896Z,48.28
2023-05-22T21:03:41.521Z,48.25
2023-05-22T21:06:09.048Z,48.32
2023-05-22T21:08:36.642Z,48.18
2023-05-22T21:11:04.256Z,48.09
2023-05-22T21:13:31.866Z,48.32
2023-05-22T21:15:59.222Z,48.14
2023-05-22T21:18:27.255Z,48.45
2023-05-22T21:20:54.578Z,48.20
2023-05-22T21:23:24.504Z,48.13
2023-05-22T21:25:52.196Z,48.21
2023-05-22T21:28:19.856Z,48.13
2023-05-22T21:30:47.307Z,48.06
2023-05-22T21:33:15.200Z,48.27
2023-05-22T21:35:42.474Z,48.11
2023-05-22T21:38:10.057Z,48.08
2023-05-22T21:40:37.471Z,48.16
2023-05-22T21:43:05.291Z,48.08
2023-05-22T21:45:32.676Z,48.26
2023-05-22T21:48:00.442Z,48.05
2023-05-22T21:50:27.812Z,48.10
2023-05-22T21:52:55.684Z,48.15
2023-05-22T21:55:23.188Z,48.15
2023-05-22T21:57:50.862Z,48.03
2023-05-22T22:00:18.985Z,47.76
2023-05-22T22:02:46.711Z,47.89
2023-05-22T22:05:14.112Z,47.85
2023-05-22T22:07:41.637Z,47.92
2023-05-22T22:10:09.212Z,47.74
2023-05-22T22:12:36.778Z,47.96
2023-05-22T22:15:04.270Z,47.83
2023-05-22T22:17:31.843Z,47.60
2023-05-22T22:19:59.219Z,47.81
2023-05-22T22:22:26.934Z,47.58
2023-05-22T22:24:54.223Z,47.60
2023-05-22T22:27:21.803Z,47.83
2023-05-22T22:29:49.150Z,47.54
2023-05-22T22:32:16.930Z,47.49
2023-05-22T22:34:45.340Z,47.59
2023-05-22T22:37:13.991Z,47.30
2023-05-22T22:39:41.300Z,47.41
2023-05-22T22:42:08.884Z,47.52
2023-05-22T22:44:36.271Z,47.17
2023-05-22T22:47:04.643Z,47.22
2023-05-22T22:49:32.701Z,47.35
2023-05-22T22:52:00.792Z,47.25
2023-05-22T22:54:28.287Z,47.19
2023-05-22T22:56:56.013Z,47.15
2023-05-22T22:59:23.255Z,47.08
2023-05-22T23:01:50.985Z,47.31
2023-05-22T23:04:18.454Z,47.44
2023-05-22T23:06:46.206Z,47.12
2023-05-22T23:09:14.551Z,47.26
2023-05-22T23:11:42.118Z,47.27
2023-05-22T23:14:10.123Z,47.16
2023-05-22T23:16:40.862Z,47.03
2023-05-22T23:19:10.407Z,47.27
2023-05-22T23:21:40.603Z,47.13
2023-05-22T23:24:07.885Z,47.05
2023-05-22T23:26:35.467Z,46.90
2023-05-22T23:29:02.816Z,47.07
2023-05-22T23:31:31.236Z,46.90
2023-05-22T23:33:58.828Z,47.06
2023-05-22T23:36:26.418Z,47.01
2023-05-22T23:38:53.738Z,47.02
2023-05-22T23:41:21.288Z,46.95
2023-05-22T23:43:48.564Z,46.81
2023-05-22T23:46:16.148Z,46.96
2023-05-22T23:48:43.460Z,46.79
2023-05-22T23:51:14.320Z,46.92
2023-05-22T23:53:42.107Z,46.82
2023-05-22T23:56:10.393Z,46.83
2023-05-22T23:58:38.243Z,46.76
